createdAt,value
2019-05-22T00:01:22.616Z,20.97
2019-05-22T00:03:58.285Z,24.37
2019-05-22T00:06:30.669Z,18.40
2019-05-22T00:08:59.473Z,18.37
2019-05-22T00:11:29.614Z,26.27
2019-05-22T00:13:59.796Z,24.57
2019-05-22T00:16:28.216Z,25.83
2019-05-22T00:18:58.009Z,28.83
2019-05-22T00:21:27.350Z,32.73
2019-05-22T00:23:55.645Z,35.77
2019-05-22T00:26:27.018Z,33.17
2019-05-22T00:28:56.785Z,33.43
2019-05-22T00:31:26.544Z,40.73
2019-05-22T00:33:56.265Z,32.37
2019-05-22T00:36:25.053Z,40.00
2019-05-22T00:38:55.072Z,37.67
2019-05-22T00:41:25.028Z,36.63
2019-05-22T00:43:53.202Z,32.23
2019-05-22T00:46:21.750Z,32.80
2019-05-22T00:48:51.456Z,30.13
2019-05-22T00:51:29.501Z,30.30
2019-05-22T00:54:22.607Z,33.40
2019-05-22T00:56:56.871Z,33.70
2019-05-22T00:59:32.079Z,34.43
2019-05-22T01:02:04.592Z,37.27
2019-05-22T01:04:38.094Z,29.47
2019-05-22T01:07:12.111Z,38.57
2019-05-22T01:09:44.459Z,36.77
2019-05-22T01:12:19.425Z,37.13
2019-05-22T01:14:48.909Z,33.00
2019-05-22T01:17:17.713Z,28.67
2019-05-22T01:19:48.115Z,35.57
2019-05-22T01:22:17.989Z,20.10
2019-05-22T01:24:49.436Z,27.87
2019-05-22T01:27:18.095Z,29.20
2019-05-22T01:29:48.562Z,41.57
2019-05-22T01:32:24.834Z,32.83
2019-05-22T01:34:53.223Z,47.90
2019-05-22T01:37:22.493Z,41.77
2019-05-22T01:40:04.701Z,47.40
2019-05-22T01:42:37.028Z,43.27
2019-05-22T01:45:09.112Z,50.20
2019-05-22T01:48:08.669Z,46.87
2019-05-22T01:50:44.082Z,48.70
2019-05-22T01:53:15.712Z,41.07
2019-05-22T01:55:45.712Z,49.97
2019-05-22T01:58:16.361Z,40.90
2019-05-22T02:00:44.670Z,37.20
2019-05-22T02:03:14.530Z,41.93
2019-05-22T02:05:43.287Z,33.57
2019-05-22T02:08:12.501Z,42.47
2019-05-22T02:10:42.247Z,43.07
2019-05-22T02:13:11.069Z,40.57
2019-05-22T02:15:41.184Z,43.70
2019-05-22T02:18:12.941Z,43.33
2019-05-22T02:20:42.155Z,41.30
2019-05-22T02:23:10.907Z,41.87
2019-05-22T02:25:39.841Z,34.63
2019-05-22T02:28:09.271Z,31.07
2019-05-22T02:30:39.043Z,39.57
2019-05-22T02:33:10.988Z,29.67
2019-05-22T02:35:39.430Z,23.43
2019-05-22T02:38:08.058Z,43.60
2019-05-22T02:40:37.447Z,32.43
2019-05-22T02:43:06.791Z,35.03
2019-05-22T02:45:35.722Z,42.73
2019-05-22T02:48:06.522Z,44.10
2019-05-22T02:50:35.240Z,51.67
2019-05-22T02:53:04.440Z,44.80
2019-05-22T02:55:32.895Z,38.10
2019-05-22T02:58:01.914Z,20.67
2019-05-22T03:00:33.194Z,30.50
2019-05-22T03:03:01.594Z,45.80
2019-05-22T03:05:29.773Z,54.20
2019-05-22T03:08:03.922Z,76.10
2019-05-22T03:10:38.370Z,90.87
2019-05-22T03:13:14.962Z,64.27
2019-05-22T03:15:44.998Z,98.43
2019-05-22T03:18:15.011Z,76.43
2019-05-22T03:20:43.790Z,75.10
2019-05-22T03:23:32.211Z,103.60
2019-05-22T03:26:01.359Z,81.03
2019-05-22T03:28:30.230Z,70.50
2019-05-22T03:30:59.388Z,89.23
2019-05-22T03:33:28.069Z,70.93
2019-05-22T03:36:03.173Z,63.60
2019-05-22T03:38:34.154Z,82.27
2019-05-22T03:41:04.404Z,34.50
2019-05-22T03:43:33.040Z,61.30
2019-05-22T03:46:05.404Z,76.63
2019-05-22T03:48:35.651Z,71.97
2019-05-22T03:51:11.196Z,62.97
2019-05-22T03:53:40.968Z,55.57
2019-05-22T03:56:09.336Z,78.40
2019-05-22T03:58:38.506Z,70.00
2019-05-22T04:01:09.845Z,75.93
2019-05-22T04:03:38.738Z,60.00
2019-05-22T04:06:06.880Z,75.53
2019-05-22T04:08:35.403Z,56.27
2019-05-22T04:11:06.371Z,47.13
2019-05-22T04:13:36.105Z,54.73
2019-05-22T04:16:06.799Z,65.57
2019-05-22T04:18:37.726Z,71.53
2019-05-22T04:21:06.084Z,55.93
2019-05-22T04:23:34.245Z,57.20
2019-05-22T04:26:04.625Z,41.47
2019-05-22T04:28:33.429Z,37.50
2019-05-22T04:31:03.172Z,48.80
2019-05-22T04:33:31.490Z,54.37
2019-05-22T04:36:00.610Z,37.47
2019-05-22T04:38:29.939Z,46.57
2019-05-22T04:40:59.957Z,35.20
2019-05-22T04:43:34.376Z,53.83
2019-05-22T04:46:06.382Z,32.27
2019-05-22T04:48:36.517Z,40.33
2019-05-22T04:51:22.626Z,42.43
2019-05-22T04:53:51.796Z,33.93
2019-05-22T04:56:20.043Z,44.93
2019-05-22T04:58:48.467Z,33.10
2019-05-22T05:01:21.519Z,41.50
2019-05-22T05:03:49.820Z,42.80
2019-05-22T05:06:20.472Z,33.67
2019-05-22T05:08:49.479Z,37.50
2019-05-22T05:11:19.030Z,31.83
2019-05-22T05:13:47.485Z,32.90
2019-05-22T05:16:16.158Z,23.40
2019-05-22T05:18:44.505Z,27.33
2019-05-22T05:21:12.648Z,30.10
2019-05-22T05:23:40.904Z,30.97
2019-05-22T05:26:09.085Z,34.67
2019-05-22T05:28:39.087Z,30.83
2019-05-22T05:31:08.218Z,31.73
2019-05-22T05:33:42.581Z,29.47
2019-05-22T05:36:10.918Z,32.20
2019-05-22T05:38:39.549Z,25.07
2019-05-22T05:41:07.764Z,28.90
2019-05-22T05:43:36.075Z,32.33
2019-05-22T05:46:04.442Z,29.73
2019-05-22T05:48:33.363Z,28.40
2019-05-22T05:51:33.906Z,28.03
2019-05-22T05:54:20.520Z,35.10
2019-05-22T05:56:49.815Z,23.30
2019-05-22T05:59:19.889Z,29.20
2019-05-22T06:01:53.259Z,29.30
2019-05-22T06:04:34.991Z,33.70
2019-05-22T06:07:28.906Z,27.97
2019-05-22T06:10:16.730Z,37.70
2019-05-22T06:12:44.954Z,28.23
2019-05-22T06:15:13.761Z,27.53
2019-05-22T06:18:01.197Z,22.83
2019-05-22T06:20:31.087Z,23.33
2019-05-22T06:23:28.642Z,37.67
2019-05-22T06:25:58.369Z,25.97
2019-05-22T06:28:29.679Z,33.43
2019-05-22T06:31:00.044Z,40.97
2019-05-22T06:33:29.526Z,35.17
2019-05-22T06:35:58.071Z,27.77
2019-05-22T06:38:50.197Z,34.30
2019-05-22T06:41:18.906Z,22.93
2019-05-22T06:44:07.075Z,27.77
2019-05-22T06:46:44.806Z,35.03
2019-05-22T06:49:31.330Z,29.30
2019-05-22T06:51:59.494Z,28.27
2019-05-22T06:54:27.726Z,30.20
2019-05-22T06:56:57.881Z,30.63
2019-05-22T06:59:26.532Z,22.83
2019-05-22T07:02:01.450Z,26.30
2019-05-22T07:04:27.331Z,18.23
2019-05-22T07:06:56.284Z,30.23
2019-05-22T07:09:25.720Z,23.67
2019-05-22T07:11:54.856Z,24.30
2019-05-22T07:14:24.478Z,32.63
2019-05-22T07:16:54.571Z,18.77
2019-05-22T07:19:23.007Z,17.43
2019-05-22T07:21:52.367Z,31.43
2019-05-22T07:24:21.781Z,28.07
2019-05-22T07:26:50.016Z,25.93
2019-05-22T07:29:18.165Z,22.70
2019-05-22T07:31:47.557Z,22.60
2019-05-22T07:34:16.590Z,19.67
2019-05-22T07:36:45.091Z,28.23
2019-05-22T07:39:13.792Z,20.27
2019-05-22T07:41:42.611Z,20.17
2019-05-22T07:44:11.321Z,22.50
2019-05-22T07:46:40.226Z,19.27
2019-05-22T07:49:08.737Z,14.43
2019-05-22T07:51:53.293Z,21.73
2019-05-22T07:54:08.618Z,14.23
2019-05-22T07:56:38.979Z,16.20
2019-05-22T07:59:08.146Z,19.30
2019-05-22T08:01:36.560Z,12.37
2019-05-22T08:04:04.673Z,17.10
2019-05-22T08:06:32.612Z,12.47
2019-05-22T08:09:03.797Z,17.10
2019-05-22T08:11:32.388Z,15.97
2019-05-22T08:14:00.690Z,13.43
2019-05-22T08:16:29.099Z,11.53
2019-05-22T08:18:58.843Z,12.63
2019-05-22T08:21:27.311Z,16.80
2019-05-22T08:23:55.826Z,16.77
2019-05-22T08:26:24.715Z,17.80
2019-05-22T08:28:53.210Z,15.03
2019-05-22T08:31:23.256Z,12.50
2019-05-22T08:33:52.132Z,15.97
2019-05-22T08:36:21.272Z,15.73
2019-05-22T08:38:50.823Z,9.17
2019-05-22T08:41:21.694Z,12.83
2019-05-22T08:44:14.391Z,9.33
2019-05-22T08:46:22.614Z,31.60
2019-05-22T08:48:52.712Z,13.43
2019-05-22T08:51:21.792Z,11.33
2019-05-22T08:53:52.123Z,14.07
2019-05-22T08:56:20.784Z,11.37
2019-05-22T08:58:48.907Z,11.70
2019-05-22T09:01:17.686Z,9.93
2019-05-22T09:03:46.876Z,14.50
2019-05-22T09:06:15.242Z,16.83
2019-05-22T09:08:43.873Z,12.70
2019-05-22T09:11:12.683Z,11.37
2019-05-22T09:13:41.858Z,9.87
2019-05-22T09:16:11.237Z,13.47
2019-05-22T09:18:39.308Z,15.47
2019-05-22T09:21:07.909Z,12.30
2019-05-22T09:23:36.894Z,12.40
2019-05-22T09:26:06.581Z,7.13
2019-05-22T09:28:34.677Z,14.07
2019-05-22T09:31:02.793Z,9.40
2019-05-22T09:33:31.378Z,14.83
2019-05-22T09:36:00.877Z,11.17
2019-05-22T09:38:30.573Z,24.67
2019-05-22T09:40:59.655Z,11.73
2019-05-22T09:43:27.712Z,12.97
2019-05-22T09:45:56.669Z,7.93
2019-05-22T09:48:24.806Z,9.70
2019-05-22T09:50:53.002Z,13.60
2019-05-22T09:53:22.729Z,11.60
2019-05-22T09:55:51.578Z,10.47
2019-05-22T09:58:19.729Z,11.97
2019-05-22T10:00:50.111Z,7.87
2019-05-22T10:03:19.293Z,10.67
2019-05-22T10:05:48.291Z,11.97
2019-05-22T10:08:16.504Z,12.47
2019-05-22T10:10:45.362Z,23.97
2019-05-22T10:13:13.349Z,13.80
2019-05-22T10:15:41.875Z,15.27
2019-05-22T10:18:11.091Z,11.23
2019-05-22T10:20:39.420Z,12.73
2019-05-22T10:23:15.625Z,11.87
2019-05-22T10:25:38.154Z,16.00
2019-05-22T10:28:08.078Z,13.20
2019-05-22T10:30:36.399Z,11.90
2019-05-22T10:33:05.926Z,12.07
2019-05-22T10:35:35.074Z,10.17
2019-05-22T10:38:03.192Z,23.53
2019-05-22T10:40:31.431Z,17.40
2019-05-22T10:42:59.447Z,8.97
2019-05-22T10:45:28.553Z,12.43
2019-05-22T10:47:57.216Z,8.93
2019-05-22T10:50:25.542Z,18.13
2019-05-22T10:52:55.676Z,10.57
2019-05-22T10:55:23.907Z,11.87
2019-05-22T10:57:53.017Z,11.90
2019-05-22T11:00:23.315Z,12.63
2019-05-22T11:02:53.091Z,12.47
2019-05-22T11:05:22.899Z,11.00
2019-05-22T11:07:53.871Z,13.70
2019-05-22T11:10:24.338Z,8.27
2019-05-22T11:12:52.484Z,10.43
2019-05-22T11:15:21.836Z,8.77
2019-05-22T11:17:49.847Z,8.53
2019-05-22T11:20:20.267Z,11.27
2019-05-22T11:22:50.472Z,8.47
2019-05-22T11:25:23.294Z,10.73
2019-05-22T11:27:56.877Z,9.93
2019-05-22T11:30:26.115Z,8.50
2019-05-22T11:35:23.935Z,9.47
2019-05-22T11:37:54.018Z,10.00
2019-05-22T11:40:24.087Z,8.27
2019-05-22T11:42:54.505Z,9.27
2019-05-22T11:45:30.680Z,12.60
2019-05-22T11:48:00.308Z,8.87
2019-05-22T11:50:31.588Z,8.97
2019-05-22T11:53:02.001Z,11.13
2019-05-22T11:55:44.351Z,7.43
2019-05-22T11:58:02.682Z,9.30
2019-05-22T12:00:30.951Z,9.20
2019-05-22T12:03:01.394Z,10.30
2019-05-22T12:05:30.691Z,9.90
2019-05-22T12:07:59.685Z,11.20
2019-05-22T12:10:28.077Z,12.43
2019-05-22T12:12:57.341Z,32.57
2019-05-22T12:15:27.472Z,23.67
2019-05-22T12:17:56.243Z,13.27
2019-05-22T12:20:28.971Z,11.10
2019-05-22T12:22:57.895Z,15.03
2019-05-22T12:25:26.422Z,10.27
2019-05-22T12:27:55.950Z,6.80
2019-05-22T12:30:24.688Z,17.00
2019-05-22T12:32:53.080Z,10.70
2019-05-22T12:35:21.547Z,6.07
2019-05-22T12:37:50.193Z,7.37
2019-05-22T12:40:20.346Z,8.37
2019-05-22T12:42:49.336Z,9.07
2019-05-22T12:45:18.845Z,12.33
2019-05-22T12:47:47.113Z,13.40
2019-05-22T12:50:17.046Z,13.03
2019-05-22T12:52:47.410Z,10.23
2019-05-22T12:55:16.418Z,13.27
2019-05-22T12:57:45.289Z,12.47
2019-05-22T13:00:13.820Z,12.47
2019-05-22T13:02:43.320Z,14.20
2019-05-22T13:05:14.495Z,17.60
2019-05-22T13:07:43.993Z,15.23
2019-05-22T13:10:12.908Z,15.17
2019-05-22T13:12:41.858Z,15.37
2019-05-22T13:15:11.122Z,12.47
2019-05-22T13:17:41.331Z,16.17
2019-05-22T13:20:10.221Z,19.57
2019-05-22T13:22:41.140Z,11.80
2019-05-22T13:25:12.862Z,19.67
2019-05-22T13:27:41.539Z,18.57
2019-05-22T13:30:11.788Z,12.67
2019-05-22T13:32:41.074Z,14.97
2019-05-22T13:35:10.469Z,17.00
2019-05-22T13:37:40.283Z,19.20
2019-05-22T13:40:26.617Z,14.80
2019-05-22T13:42:40.076Z,15.90
2019-05-22T13:45:27.349Z,17.43
2019-05-22T13:47:39.760Z,13.67
2019-05-22T13:50:09.626Z,17.83
2019-05-22T13:52:38.406Z,17.70
2019-05-22T13:55:07.581Z,20.67
2019-05-22T13:57:37.147Z,17.87
2019-05-22T14:00:09.603Z,14.40
2019-05-22T14:02:36.885Z,21.37
2019-05-22T14:05:05.342Z,12.87
2019-05-22T14:07:33.778Z,14.07
2019-05-22T14:10:02.539Z,18.57
2019-05-22T14:12:32.000Z,13.03
2019-05-22T14:15:03.206Z,16.97
2019-05-22T14:17:32.205Z,14.13
2019-05-22T14:20:00.428Z,14.70
2019-05-22T14:22:28.534Z,13.97
2019-05-22T14:24:56.906Z,17.80
2019-05-22T14:27:25.258Z,15.83
2019-05-22T14:29:53.449Z,11.23
2019-05-22T14:32:30.040Z,11.77
2019-05-22T14:34:53.820Z,13.40
2019-05-22T14:37:23.786Z,15.00
2019-05-22T14:39:53.042Z,16.40
2019-05-22T14:42:21.206Z,10.00
2019-05-22T14:44:50.122Z,10.43
2019-05-22T14:47:18.810Z,10.43
2019-05-22T14:49:47.658Z,10.63
2019-05-22T14:52:16.232Z,9.73
2019-05-22T14:54:44.484Z,10.07
2019-05-22T14:57:13.908Z,11.10
2019-05-22T14:59:42.315Z,10.90
2019-05-22T15:02:12.134Z,13.37
2019-05-22T15:04:40.634Z,10.67
2019-05-22T15:07:09.992Z,13.20
2019-05-22T15:09:38.255Z,12.27
2019-05-22T15:12:06.423Z,21.10
2019-05-22T15:14:34.465Z,9.63
2019-05-22T15:17:02.614Z,14.97
2019-05-22T15:19:31.955Z,10.37
2019-05-22T15:22:00.137Z,7.33
2019-05-22T15:24:28.957Z,12.27
2019-05-22T15:26:57.254Z,10.33
2019-05-22T15:29:25.523Z,8.30
2019-05-22T15:31:54.470Z,11.57
2019-05-22T15:34:24.191Z,8.50
2019-05-22T15:36:55.329Z,9.03
2019-05-22T15:39:25.496Z,12.60
2019-05-22T15:41:54.164Z,8.63
2019-05-22T15:44:23.688Z,11.90
2019-05-22T15:46:51.862Z,13.20
2019-05-22T15:49:20.158Z,24.07
2019-05-22T15:51:50.414Z,10.60
2019-05-22T15:54:19.239Z,13.43
2019-05-22T15:56:47.825Z,14.07
2019-05-22T15:59:18.127Z,9.53
2019-05-22T16:01:47.988Z,30.37
2019-05-22T16:04:18.210Z,11.37
2019-05-22T16:06:48.196Z,9.20
2019-05-22T16:09:18.577Z,9.83
2019-05-22T16:11:49.568Z,11.40
2019-05-22T16:14:18.339Z,9.90
2019-05-22T16:16:49.212Z,12.37
2019-05-22T16:19:17.968Z,15.03
2019-05-22T16:21:48.413Z,13.37
2019-05-22T16:24:17.437Z,9.70
2019-05-22T16:26:46.112Z,11.03
2019-05-22T16:29:15.595Z,12.53
2019-05-22T16:31:47.230Z,15.87
2019-05-22T16:34:15.438Z,13.93
2019-05-22T16:36:46.487Z,12.90
2019-05-22T16:39:15.762Z,11.87
2019-05-22T16:41:44.379Z,13.47
2019-05-22T16:44:12.963Z,12.67
2019-05-22T16:46:42.883Z,11.70
2019-05-22T16:49:12.009Z,6.83
2019-05-22T16:51:40.931Z,7.73
2019-05-22T16:54:10.758Z,7.33
2019-05-22T16:56:39.474Z,10.77
2019-05-22T16:59:10.739Z,7.83
2019-05-22T17:01:57.138Z,13.27
2019-05-22T17:04:11.703Z,10.93
2019-05-22T17:06:42.011Z,7.03
2019-05-22T17:09:12.186Z,10.47
2019-05-22T17:11:40.498Z,13.17
2019-05-22T17:14:12.352Z,8.83
2019-05-22T17:16:41.449Z,10.13
2019-05-22T17:19:25.620Z,6.17
2019-05-22T17:21:41.051Z,8.67
2019-05-22T17:24:10.821Z,9.30
2019-05-22T17:26:39.984Z,7.60
2019-05-22T17:29:09.114Z,8.20
2019-05-22T17:31:37.659Z,7.47
2019-05-22T17:34:27.030Z,7.77
2019-05-22T17:36:57.315Z,11.23
2019-05-22T17:39:27.873Z,7.90
2019-05-22T17:41:56.756Z,11.07
2019-05-22T17:44:26.011Z,7.83
2019-05-22T17:46:54.685Z,8.10
2019-05-22T17:49:23.496Z,11.93
2019-05-22T17:51:52.141Z,9.67
2019-05-22T17:54:21.005Z,11.37
2019-05-22T17:56:51.579Z,6.00
2019-05-22T17:59:19.732Z,10.20
2019-05-22T18:01:48.363Z,11.53
2019-05-22T18:04:17.321Z,8.53
2019-05-22T18:06:45.649Z,8.77
2019-05-22T18:09:15.203Z,9.10
2019-05-22T18:11:44.435Z,7.20
2019-05-22T18:14:13.419Z,11.80
2019-05-22T18:16:42.071Z,10.40
2019-05-22T18:19:11.477Z,7.87
2019-05-22T18:21:40.296Z,9.57
2019-05-22T18:24:09.703Z,13.13
2019-05-22T18:26:38.227Z,12.07
2019-05-22T18:29:07.566Z,9.10
2019-05-22T18:31:36.486Z,8.63
2019-05-22T18:34:04.739Z,6.27
2019-05-22T18:36:32.665Z,7.43
2019-05-22T18:39:01.769Z,8.93
2019-05-22T18:41:30.205Z,6.77
2019-05-22T18:43:59.150Z,8.40
2019-05-22T18:46:27.760Z,6.50
2019-05-22T18:48:55.933Z,8.27
2019-05-22T18:51:24.830Z,8.27
2019-05-22T18:53:55.190Z,7.53
2019-05-22T18:56:24.057Z,10.97
2019-05-22T18:58:52.862Z,10.30
2019-05-22T19:01:21.062Z,8.27
2019-05-22T19:03:49.926Z,10.23
2019-05-22T19:06:29.811Z,11.87
2019-05-22T19:08:50.825Z,10.57
2019-05-22T19:11:19.483Z,9.13
2019-05-22T19:13:48.396Z,7.40
2019-05-22T19:16:16.808Z,13.10
2019-05-22T19:18:46.714Z,9.87
2019-05-22T19:21:15.386Z,9.47
2019-05-22T19:23:43.797Z,9.67
2019-05-22T19:26:12.662Z,9.87
2019-05-22T19:28:43.961Z,7.90
2019-05-22T19:31:11.185Z,8.43
2019-05-22T19:33:44.904Z,8.37
2019-05-22T19:36:10.781Z,10.00
2019-05-22T19:38:39.299Z,14.27
2019-05-22T19:41:09.280Z,12.37
2019-05-22T19:43:40.090Z,12.10
2019-05-22T19:46:08.956Z,11.93
2019-05-22T19:48:41.367Z,11.17
2019-05-22T19:51:10.527Z,11.10
2019-05-22T19:53:40.038Z,10.10
2019-05-22T19:56:09.278Z,11.60
2019-05-22T19:58:38.265Z,9.73
2019-05-22T20:01:06.569Z,10.07
2019-05-22T20:03:35.227Z,9.33
2019-05-22T20:06:03.888Z,9.13
2019-05-22T20:08:36.151Z,9.03
2019-05-22T20:11:03.805Z,9.07
2019-05-22T20:13:35.240Z,8.93
2019-05-22T20:16:03.780Z,10.17
2019-05-22T20:18:32.100Z,8.93
2019-05-22T20:21:00.614Z,11.03
2019-05-22T20:23:35.884Z,8.53
2019-05-22T20:25:59.547Z,8.03
2019-05-22T20:28:28.078Z,12.47
2019-05-22T20:30:56.898Z,7.73
2019-05-22T20:33:27.137Z,10.30
2019-05-22T20:36:04.120Z,11.77
2019-05-22T20:38:38.178Z,9.23
2019-05-22T20:41:06.345Z,8.93
2019-05-22T20:43:35.488Z,8.13
2019-05-22T20:46:06.028Z,9.57
2019-05-22T20:48:35.294Z,8.40
2019-05-22T20:51:04.839Z,7.93
2019-05-22T20:53:52.236Z,10.03
2019-05-22T20:56:06.971Z,7.73
2019-05-22T20:58:35.923Z,8.60
2019-05-22T21:01:05.965Z,9.70
2019-05-22T21:03:35.159Z,7.60
2019-05-22T21:06:05.512Z,10.77
2019-05-22T21:08:34.919Z,12.77
2019-05-22T21:11:05.096Z,8.83
2019-05-22T21:13:34.778Z,7.87
2019-05-22T21:16:04.360Z,7.23
2019-05-22T21:18:41.380Z,9.50
2019-05-22T21:21:11.455Z,11.57
2019-05-22T21:23:40.991Z,7.30
2019-05-22T21:26:10.914Z,7.60
2019-05-22T21:28:39.280Z,7.83
2019-05-22T21:31:09.168Z,8.80
2019-05-22T21:33:38.891Z,7.77
2019-05-22T21:36:09.819Z,7.50
2019-05-22T21:38:38.965Z,5.93
2019-05-22T21:41:08.374Z,8.80
2019-05-22T21:43:36.782Z,7.77
2019-05-22T21:46:05.693Z,7.97
2019-05-22T21:48:36.478Z,8.90
2019-05-22T21:51:07.193Z,7.67
2019-05-22T21:53:35.802Z,7.33
2019-05-22T21:56:06.359Z,8.83
2019-05-22T21:58:35.623Z,8.97
2019-05-22T22:01:21.516Z,8.43
2019-05-22T22:03:54.852Z,7.13
2019-05-22T22:06:23.655Z,7.20
2019-05-22T22:08:52.234Z,8.13
2019-05-22T22:11:23.761Z,8.57
2019-05-22T22:13:54.693Z,8.27
2019-05-22T22:16:23.270Z,7.60
2019-05-22T22:18:52.278Z,8.07
2019-05-22T22:21:21.205Z,8.50
2019-05-22T22:23:50.146Z,8.50
2019-05-22T22:26:25.755Z,8.73
2019-05-22T22:28:49.522Z,8.70
2019-05-22T22:31:19.916Z,8.27
2019-05-22T22:33:49.988Z,8.10
2019-05-22T22:36:18.595Z,8.23
2019-05-22T22:38:47.869Z,11.97
2019-05-22T22:41:16.534Z,8.80
2019-05-22T22:43:44.971Z,9.17
2019-05-22T22:46:23.112Z,8.77
2019-05-22T22:48:53.562Z,11.40
2019-05-22T22:51:22.731Z,9.13
2019-05-22T22:53:52.298Z,10.90
2019-05-22T22:56:20.890Z,9.53
2019-05-22T22:58:49.329Z,9.20
2019-05-22T23:01:21.175Z,8.67
2019-05-22T23:07:12.032Z,10.37
2019-05-22T23:09:42.354Z,11.87
2019-05-22T23:12:12.730Z,9.83
2019-05-22T23:14:42.941Z,9.67
2019-05-22T23:17:12.153Z,9.73
2019-05-22T23:19:41.450Z,9.87
2019-05-22T23:22:27.236Z,10.03
2019-05-22T23:25:00.691Z,11.83
2019-05-22T23:27:31.497Z,9.43
2019-05-22T23:30:04.040Z,13.77
2019-05-22T23:32:31.262Z,11.20
2019-05-22T23:35:00.044Z,11.83
2019-05-22T23:37:30.498Z,12.17
2019-05-22T23:39:59.785Z,9.93
2019-05-22T23:42:32.584Z,11.93
2019-05-22T23:45:07.212Z,11.03
2019-05-22T23:47:39.411Z,10.93
2019-05-22T23:50:08.255Z,10.63
2019-05-22T23:52:36.458Z,14.17
2019-05-22T23:55:07.097Z,13.57
2019-05-22T23:57:36.996Z,11.57
